createdAt,value
2022-08-05T00:00:50.364Z,20.97
2022-08-05T00:03:17.065Z,21.02
2022-08-05T00:06:05.046Z,21.02
2022-08-05T00:08:34.570Z,20.94
2022-08-05T00:11:04.288Z,20.92
2022-08-05T00:13:39.052Z,20.89
2022-08-05T00:16:12.646Z,20.85
2022-08-05T00:18:41.072Z,20.80
2022-08-05T00:21:09.664Z,20.77
2022-08-05T00:23:46.643Z,20.73
2022-08-05T00:26:20.637Z,20.78
2022-08-05T00:28:47.129Z,20.81
2022-08-05T00:31:16.052Z,20.81
2022-08-05T00:34:56.408Z,20.83
2022-08-05T00:37:11.701Z,20.86
2022-08-05T00:39:15.658Z,20.77
2022-08-05T00:41:51.966Z,20.72
2022-08-05T00:44:21.983Z,20.66
2022-08-05T00:46:54.116Z,20.68
2022-08-05T00:49:32.331Z,20.58
2022-08-05T00:51:59.938Z,20.55
2022-08-05T00:54:28.205Z,20.57
2022-08-05T00:56:56.939Z,20.60
2022-08-05T00:59:23.803Z,20.53
2022-08-05T01:01:51.099Z,20.52
2022-08-05T01:04:20.124Z,20.46
2022-08-05T01:06:53.064Z,20.40
2022-08-05T01:09:20.054Z,20.44
2022-08-05T01:11:49.486Z,20.46
2022-08-05T01:14:30.152Z,20.47
2022-08-05T01:17:04.739Z,20.48
2022-08-05T01:20:02.124Z,20.44
2022-08-05T01:22:40.496Z,20.46
2022-08-05T01:25:41.063Z,20.37
2022-08-05T01:28:24.449Z,20.38
2022-08-05T01:31:01.187Z,20.35
2022-08-05T01:33:35.483Z,20.25
2022-08-05T01:36:12.718Z,20.16
2022-08-05T01:38:41.146Z,20.12
2022-08-05T01:41:08.445Z,19.99
2022-08-05T01:43:35.747Z,19.92
2022-08-05T01:46:07.403Z,19.97
2022-08-05T01:48:45.017Z,20.05
2022-08-05T01:51:18.524Z,20.10
2022-08-05T01:53:57.605Z,20.18
2022-08-05T01:58:13.576Z,20.21
2022-08-05T01:59:20.677Z,20.22
2022-08-05T02:01:49.652Z,20.25
2022-08-05T02:04:20.441Z,20.24
2022-08-05T02:06:47.890Z,20.22
2022-08-05T02:09:14.596Z,20.21
2022-08-05T02:11:52.616Z,20.22
2022-08-05T02:14:32.116Z,20.19
2022-08-05T02:17:06.760Z,20.13
2022-08-05T02:19:47.215Z,20.05
2022-08-05T02:22:28.396Z,20.02
2022-08-05T02:25:08.612Z,19.99
2022-08-05T02:27:59.520Z,20.01
2022-08-05T02:30:38.788Z,20.01
2022-08-05T02:33:24.169Z,19.98
2022-08-05T02:35:58.930Z,19.96
2022-08-05T02:38:34.995Z,19.95
2022-08-05T02:41:06.391Z,19.94
2022-08-05T02:44:02.815Z,19.89
2022-08-05T02:46:30.601Z,19.84
2022-08-05T02:48:57.725Z,19.85
2022-08-05T02:51:28.158Z,19.84
2022-08-05T02:54:36.207Z,19.81
2022-08-05T02:57:01.931Z,19.78
2022-08-05T02:59:30.408Z,19.71
2022-08-05T03:02:17.819Z,19.67
2022-08-05T03:04:45.737Z,19.61
2022-08-05T03:07:17.613Z,19.60
2022-08-05T03:10:00.084Z,19.60
2022-08-05T03:12:36.591Z,19.62
2022-08-05T03:15:06.762Z,19.62
2022-08-05T03:17:34.802Z,19.64
2022-08-05T03:20:09.070Z,19.65
2022-08-05T03:22:37.148Z,19.70
2022-08-05T03:25:32.834Z,19.71
2022-08-05T03:27:59.980Z,19.70
2022-08-05T03:30:33.722Z,19.68
2022-08-05T03:33:03.191Z,19.63
2022-08-05T03:35:34.015Z,19.58
2022-08-05T03:38:07.179Z,19.53
2022-08-05T03:40:34.189Z,19.49
2022-08-05T03:43:58.376Z,19.48
2022-08-05T03:45:57.176Z,19.47
2022-08-05T03:48:24.978Z,19.46
2022-08-05T03:50:59.163Z,19.45
2022-08-05T03:55:51.364Z,19.45
2022-08-05T03:56:46.510Z,19.46
2022-08-05T03:59:47.682Z,19.51
2022-08-05T04:02:38.814Z,19.54
2022-08-05T04:05:09.883Z,19.54
2022-08-05T04:07:51.480Z,19.56
2022-08-05T04:10:33.294Z,19.56
2022-08-05T04:13:05.288Z,19.54
2022-08-05T04:15:33.298Z,19.50
2022-08-05T04:18:07.432Z,19.48
2022-08-05T04:20:36.012Z,19.45
2022-08-05T04:23:02.537Z,19.41
2022-08-05T04:25:49.425Z,19.40
2022-08-05T04:28:17.213Z,19.40
2022-08-05T04:30:44.034Z,19.40
2022-08-05T04:33:10.549Z,19.45
2022-08-05T04:36:11.270Z,19.46
2022-08-05T04:38:39.692Z,19.51
2022-08-05T04:41:07.235Z,19.52
2022-08-05T04:43:33.978Z,19.52
2022-08-05T04:46:00.788Z,19.46
2022-08-05T04:48:28.376Z,19.37
2022-08-05T04:51:02.669Z,19.34
2022-08-05T04:53:33.489Z,19.35
2022-08-05T04:56:32.832Z,19.35
2022-08-05T04:58:49.319Z,19.36
2022-08-05T05:01:15.937Z,19.37
2022-08-05T05:04:02.292Z,19.41
2022-08-05T05:06:36.100Z,19.38
2022-08-05T05:09:07.790Z,19.38
2022-08-05T05:11:42.172Z,19.38
2022-08-05T05:14:27.885Z,19.39
2022-08-05T05:16:58.856Z,19.41
2022-08-05T05:19:27.506Z,19.40
2022-08-05T05:22:23.636Z,19.44
2022-08-05T05:24:57.527Z,19.42
2022-08-05T05:27:44.137Z,19.46
2022-08-05T05:30:29.394Z,19.50
2022-08-05T05:33:03.593Z,19.56
2022-08-05T05:35:42.571Z,19.59
2022-08-05T05:38:13.343Z,19.68
2022-08-05T05:40:49.762Z,19.70
2022-08-05T05:43:22.135Z,19.61
2022-08-05T05:45:54.802Z,19.62
2022-08-05T05:48:27.272Z,19.61
2022-08-05T05:50:54.486Z,19.57
2022-08-05T05:53:22.680Z,19.61
2022-08-05T05:55:52.281Z,20.05
2022-08-05T05:58:31.613Z,21.19
2022-08-05T06:01:02.418Z,21.74
2022-08-05T06:04:01.161Z,21.36
2022-08-05T06:06:33.012Z,21.03
2022-08-05T06:09:01.307Z,20.83
2022-08-05T06:11:30.431Z,20.72
2022-08-05T06:13:56.889Z,20.78
2022-08-05T06:16:29.706Z,20.94
2022-08-05T06:19:01.884Z,21.51
2022-08-05T06:21:36.602Z,23.56
2022-08-05T06:24:04.326Z,24.25
2022-08-05T06:26:31.810Z,25.22
2022-08-05T06:29:03.667Z,24.40
2022-08-05T06:31:46.784Z,25.49
2022-08-05T06:34:13.739Z,27.17
2022-08-05T06:36:57.019Z,28.33
2022-08-05T06:39:27.275Z,28.11
2022-08-05T06:41:56.620Z,28.45
2022-08-05T06:44:25.305Z,29.00
2022-08-05T06:46:52.638Z,30.29
2022-08-05T06:49:50.560Z,30.98
2022-08-05T06:52:07.609Z,31.38
2022-08-05T06:54:54.192Z,31.85
2022-08-05T06:58:03.092Z,31.20
2022-08-05T07:00:07.842Z,30.83
2022-08-05T07:02:44.122Z,29.30
2022-08-05T07:05:18.544Z,28.05
2022-08-05T07:07:48.855Z,28.12
2022-08-05T07:10:16.483Z,27.73
2022-08-05T07:13:02.598Z,27.14
2022-08-05T07:16:00.998Z,26.62
2022-08-05T07:18:31.542Z,26.16
2022-08-05T07:20:58.486Z,25.83
2022-08-05T07:23:31.477Z,25.51
2022-08-05T07:25:58.093Z,25.28
2022-08-05T07:28:25.250Z,24.91
2022-08-05T07:30:54.914Z,24.74
2022-08-05T07:33:37.168Z,24.84
2022-08-05T07:36:20.568Z,25.55
2022-08-05T07:38:48.947Z,26.79
2022-08-05T07:42:13.507Z,28.30
2022-08-05T07:44:14.523Z,29.38
2022-08-05T07:46:48.635Z,30.32
2022-08-05T07:49:18.303Z,30.42
2022-08-05T07:51:53.306Z,31.35
2022-08-05T07:54:30.866Z,32.05
2022-08-05T07:57:17.695Z,32.56
2022-08-05T07:59:48.897Z,33.14
2022-08-05T08:02:17.594Z,33.04
2022-08-05T08:04:46.726Z,33.06
2022-08-05T08:07:13.888Z,32.93
2022-08-05T08:09:41.770Z,32.70
2022-08-05T08:12:20.218Z,32.68
2022-08-05T08:14:55.329Z,33.16
2022-08-05T08:17:21.954Z,33.37
2022-08-05T08:20:21.309Z,33.55
2022-08-05T08:22:35.462Z,33.69
2022-08-05T08:25:03.487Z,33.84
2022-08-05T08:27:35.673Z,33.85
2022-08-05T08:30:27.602Z,33.89
2022-08-05T08:32:54.197Z,33.33
2022-08-05T08:35:21.182Z,33.14
2022-08-05T08:37:54.389Z,33.45
2022-08-05T08:40:23.731Z,32.97
2022-08-05T08:42:53.007Z,32.57
2022-08-05T08:45:27.013Z,32.18
2022-08-05T08:48:12.364Z,31.79
2022-08-05T08:51:22.157Z,31.15
2022-08-05T08:53:37.817Z,30.90
2022-08-05T08:56:07.062Z,30.62
2022-08-05T08:58:37.491Z,30.40
2022-08-05T09:01:16.399Z,30.33
2022-08-05T09:03:47.573Z,30.44
2022-08-05T09:06:20.009Z,31.10
2022-08-05T09:08:48.005Z,31.46
2022-08-05T09:11:15.137Z,31.45
2022-08-05T09:14:09.251Z,31.40
2022-08-05T09:16:32.405Z,31.35
2022-08-05T09:18:59.274Z,31.41
2022-08-05T09:22:21.939Z,31.65
2022-08-05T09:24:15.625Z,32.04
2022-08-05T09:26:46.329Z,32.12
2022-08-05T09:29:18.843Z,32.04
2022-08-05T09:32:40.933Z,31.65
2022-08-05T09:34:56.112Z,31.21
2022-08-05T09:38:16.723Z,31.11
2022-08-05T09:40:30.893Z,31.49
2022-08-05T09:42:59.125Z,31.41
2022-08-05T09:46:07.571Z,31.00
2022-08-05T09:48:34.428Z,30.41
2022-08-05T09:51:02.957Z,29.89
2022-08-05T09:53:53.509Z,29.63
2022-08-05T09:56:33.543Z,29.70
2022-08-05T09:59:04.197Z,29.65
2022-08-05T10:01:33.749Z,29.62
2022-08-05T10:04:10.314Z,29.51
2022-08-05T10:06:40.398Z,29.46
2022-08-05T10:09:27.748Z,29.15
2022-08-05T10:12:30.238Z,28.93
2022-08-05T10:15:13.733Z,29.10
2022-08-05T10:17:47.444Z,28.85
2022-08-05T10:20:23.845Z,28.72
2022-08-05T10:22:51.880Z,28.46
2022-08-05T10:25:19.639Z,28.51
2022-08-05T10:28:13.509Z,28.92
2022-08-05T10:31:20.784Z,29.71
2022-08-05T10:33:25.706Z,30.32
2022-08-05T10:35:59.814Z,30.47
2022-08-05T10:38:29.144Z,30.24
2022-08-05T10:41:12.414Z,29.90
2022-08-05T10:43:57.655Z,29.91
2022-08-05T10:46:43.803Z,29.70
2022-08-05T10:49:16.920Z,29.72
2022-08-05T10:51:59.857Z,30.06
2022-08-05T10:54:47.229Z,29.98
2022-08-05T10:57:32.348Z,29.69
2022-08-05T11:00:24.390Z,29.62
2022-08-05T11:03:25.285Z,29.56
2022-08-05T11:06:08.564Z,29.24
2022-08-05T11:09:13.148Z,29.37
2022-08-05T11:11:52.474Z,29.37
2022-08-05T11:14:57.438Z,29.33
2022-08-05T11:17:59.417Z,29.27
2022-08-05T11:20:39.001Z,29.03
2022-08-05T11:23:33.387Z,29.16
2022-08-05T11:26:17.257Z,29.11
2022-08-05T11:29:06.729Z,29.31
2022-08-05T11:31:56.448Z,29.12
2022-08-05T11:34:37.630Z,28.94
2022-08-05T11:37:06.259Z,29.14
2022-08-05T11:39:55.476Z,29.33
2022-08-05T11:42:27.916Z,29.36
2022-08-05T11:45:03.072Z,29.15
2022-08-05T11:47:48.662Z,28.85
2022-08-05T11:50:17.369Z,28.60
2022-08-05T11:52:46.093Z,28.40
2022-08-05T11:55:15.513Z,28.33
2022-08-05T11:58:09.840Z,28.26
2022-08-05T12:00:37.984Z,28.19
2022-08-05T12:03:29.064Z,28.12
2022-08-05T12:06:03.237Z,28.02
2022-08-05T12:08:33.320Z,28.09
2022-08-05T12:11:05.860Z,28.24
2022-08-05T12:13:48.374Z,28.33
2022-08-05T12:16:19.300Z,28.45
2022-08-05T12:18:49.578Z,28.52
2022-08-05T12:21:33.029Z,28.54
2022-08-05T12:24:08.615Z,28.66
2022-08-05T12:26:36.546Z,28.57
2022-08-05T12:29:09.641Z,28.43
2022-08-05T12:31:46.151Z,28.37
2022-08-05T12:34:20.519Z,28.17
2022-08-05T12:36:49.824Z,27.99
2022-08-05T12:39:17.649Z,27.87
2022-08-05T12:41:45.188Z,27.92
2022-08-05T12:44:33.021Z,27.79
2022-08-05T12:47:01.954Z,27.80
2022-08-05T12:50:03.065Z,27.88
2022-08-05T12:52:39.093Z,28.17
2022-08-05T12:55:22.184Z,28.37
2022-08-05T12:58:51.272Z,28.28
2022-08-05T13:02:01.166Z,28.04
2022-08-05T13:03:32.360Z,28.19
2022-08-05T13:05:59.091Z,27.99
2022-08-05T13:08:30.336Z,28.21
2022-08-05T13:11:02.005Z,28.58
2022-08-05T13:14:04.841Z,28.83
2022-08-05T13:16:17.433Z,29.16
2022-08-05T13:18:57.617Z,29.13
2022-08-05T13:21:28.589Z,29.31
2022-08-05T13:24:08.923Z,29.29
2022-08-05T13:26:35.827Z,29.07
2022-08-05T13:29:02.257Z,28.86
2022-08-05T13:32:02.804Z,28.71
2022-08-05T13:34:25.043Z,28.35
2022-08-05T13:36:53.781Z,28.10
2022-08-05T13:40:12.729Z,28.05
2022-08-05T13:42:08.174Z,28.03
2022-08-05T13:44:45.076Z,27.86
2022-08-05T13:47:35.783Z,28.00
2022-08-05T13:50:04.464Z,27.71
2022-08-05T13:52:35.268Z,27.50
2022-08-05T13:55:07.869Z,27.32
2022-08-05T13:57:51.417Z,27.16
2022-08-05T14:00:26.861Z,27.19
2022-08-05T14:02:55.108Z,27.56
2022-08-05T14:05:48.220Z,27.72
2022-08-05T14:08:20.316Z,27.47
2022-08-05T14:10:48.231Z,27.55
2022-08-05T14:13:17.625Z,27.60
2022-08-05T14:16:08.517Z,27.37
2022-08-05T14:18:30.884Z,27.63
2022-08-05T14:23:28.107Z,27.76
2022-08-05T14:26:02.793Z,27.84
2022-08-05T14:28:31.569Z,27.67
2022-08-05T14:31:00.584Z,27.50
2022-08-05T14:33:57.081Z,27.45
2022-08-05T14:36:14.321Z,27.04
2022-08-05T14:38:40.745Z,27.08
2022-08-05T14:41:08.213Z,27.12
2022-08-05T14:43:57.485Z,27.08
2022-08-05T14:46:28.157Z,26.93
2022-08-05T14:48:57.653Z,27.37
2022-08-05T14:51:24.373Z,27.09
2022-08-05T14:54:26.979Z,27.46
2022-08-05T14:56:46.805Z,27.90
2022-08-05T14:59:14.418Z,27.87
2022-08-05T15:01:49.099Z,27.77
2022-08-05T15:04:20.632Z,27.47
2022-08-05T15:06:50.920Z,27.21
2022-08-05T15:09:50.622Z,27.01
2022-08-05T15:12:06.691Z,26.80
2022-08-05T15:14:48.381Z,26.53
2022-08-05T15:17:47.231Z,26.33
2022-08-05T15:20:18.886Z,26.20
2022-08-05T15:22:54.432Z,26.15
2022-08-05T15:25:40.679Z,25.97
2022-08-05T15:28:14.583Z,25.93
2022-08-05T15:30:43.345Z,25.97
2022-08-05T15:33:12.938Z,25.86
2022-08-05T15:35:59.602Z,25.75
2022-08-05T15:38:34.104Z,25.77
2022-08-05T15:41:23.523Z,25.46
2022-08-05T15:43:49.530Z,25.39
2022-08-05T15:46:16.153Z,25.19
2022-08-05T15:48:52.700Z,25.16
2022-08-05T15:52:10.105Z,24.98
2022-08-05T15:54:16.932Z,24.87
2022-08-05T15:56:43.642Z,25.17
2022-08-05T15:59:21.709Z,25.43
2022-08-05T16:01:52.634Z,25.67
2022-08-05T16:04:20.498Z,25.84
2022-08-05T16:06:52.449Z,25.78
2022-08-05T16:09:19.000Z,25.88
2022-08-05T16:11:52.782Z,26.02
2022-08-05T16:14:19.913Z,26.04
2022-08-05T16:16:47.385Z,25.74
2022-08-05T16:19:18.782Z,25.64
2022-08-05T16:22:00.503Z,25.31
2022-08-05T16:24:40.650Z,25.43
2022-08-05T16:27:08.615Z,25.45
2022-08-05T16:29:37.492Z,25.41
2022-08-05T16:32:06.649Z,24.75
2022-08-05T16:34:36.508Z,24.67
2022-08-05T16:38:02.492Z,24.87
2022-08-05T16:40:05.138Z,24.87
2022-08-05T16:42:36.515Z,24.89
2022-08-05T16:46:03.672Z,24.84
2022-08-05T16:47:56.442Z,24.88
2022-08-05T16:50:26.185Z,24.92
2022-08-05T16:52:52.817Z,24.78
2022-08-05T16:55:22.822Z,24.67
2022-08-05T16:58:00.097Z,24.72
2022-08-05T17:00:34.639Z,24.73
2022-08-05T17:03:15.143Z,24.76
2022-08-05T17:05:50.258Z,24.87
2022-08-05T17:08:35.791Z,24.84
2022-08-05T17:11:08.818Z,24.76
2022-08-05T17:13:37.714Z,24.53
2022-08-05T17:16:29.848Z,24.23
2022-08-05T17:18:57.240Z,23.81
2022-08-05T17:21:23.989Z,23.60
2022-08-05T17:24:04.370Z,23.58
2022-08-05T17:26:35.468Z,23.65
2022-08-05T17:29:07.570Z,23.68
2022-08-05T17:31:57.295Z,23.73
2022-08-05T17:34:32.116Z,23.57
2022-08-05T17:37:00.175Z,23.38
2022-08-05T17:39:33.248Z,23.14
2022-08-05T17:42:17.809Z,23.05
2022-08-05T17:44:50.721Z,22.86
2022-08-05T17:47:22.887Z,22.75
2022-08-05T17:49:52.055Z,22.58
2022-08-05T17:52:30.803Z,22.40
2022-08-05T17:54:57.745Z,22.34
2022-08-05T17:57:24.688Z,22.16
2022-08-05T18:00:05.459Z,22.08
2022-08-05T18:02:35.877Z,21.92
2022-08-05T18:05:07.763Z,21.90
2022-08-05T18:07:41.351Z,22.03
2022-08-05T18:10:20.425Z,22.00
2022-08-05T18:12:49.081Z,22.00
2022-08-05T18:15:15.818Z,21.88
2022-08-05T18:18:00.239Z,21.71
2022-08-05T18:20:31.858Z,21.53
2022-08-05T18:23:09.092Z,21.40
2022-08-05T18:25:38.733Z,21.44
2022-08-05T18:28:05.948Z,21.46
2022-08-05T18:30:33.328Z,21.47
2022-08-05T18:33:01.040Z,21.40
2022-08-05T18:35:59.829Z,21.29
2022-08-05T18:38:19.174Z,21.20
2022-08-05T18:41:56.221Z,21.06
2022-08-05T18:43:43.191Z,20.97
2022-08-05T18:46:19.909Z,20.87
2022-08-05T18:48:51.548Z,20.75
2022-08-05T18:52:05.821Z,20.63
2022-08-05T18:54:27.564Z,20.48
2022-08-05T18:56:57.174Z,20.38
2022-08-05T18:59:43.995Z,20.26
2022-08-05T19:02:28.671Z,20.14
2022-08-05T19:05:03.207Z,20.05
2022-08-05T19:07:50.138Z,19.98
2022-08-05T19:10:18.819Z,19.91
2022-08-05T19:12:53.507Z,19.83
2022-08-05T19:15:57.581Z,19.75
2022-08-05T19:18:20.949Z,19.66
2022-08-05T19:20:53.486Z,19.61
2022-08-05T19:24:05.010Z,19.53
2022-08-05T19:26:08.475Z,19.48
2022-08-05T19:28:41.836Z,19.32
2022-08-05T19:31:09.618Z,19.21
2022-08-05T19:33:40.710Z,19.13
2022-08-05T19:36:16.813Z,19.04
2022-08-05T19:38:47.665Z,18.96
2022-08-05T19:41:17.248Z,18.85
2022-08-05T19:44:06.401Z,18.75
2022-08-05T19:46:40.022Z,18.66
2022-08-05T19:49:07.718Z,18.59
2022-08-05T19:52:13.147Z,18.54
2022-08-05T19:54:31.447Z,18.49
2022-08-05T19:57:06.460Z,18.46
2022-08-05T20:00:01.280Z,18.38
2022-08-05T20:02:26.339Z,18.34
2022-08-05T20:04:58.574Z,18.26
2022-08-05T20:07:47.211Z,18.19
2022-08-05T20:10:14.209Z,18.12
2022-08-05T20:12:48.357Z,18.02
2022-08-05T20:15:48.077Z,17.96
2022-08-05T20:18:10.252Z,17.92
2022-08-05T20:20:56.593Z,17.84
2022-08-05T20:23:39.552Z,17.80
2022-08-05T20:26:15.986Z,17.73
2022-08-05T20:28:44.472Z,17.66
2022-08-05T20:31:11.289Z,17.63
2022-08-05T20:33:42.414Z,17.60
2022-08-05T20:36:10.176Z,17.54
2022-08-05T20:38:37.800Z,17.51
2022-08-05T20:41:10.324Z,17.45
2022-08-05T20:43:59.712Z,17.39
2022-08-05T20:46:29.265Z,17.32
2022-08-05T20:48:55.696Z,17.28
2022-08-05T20:51:22.311Z,17.24
2022-08-05T20:53:56.955Z,17.21
2022-08-05T20:56:28.729Z,17.13
2022-08-05T20:59:11.187Z,17.08
2022-08-05T21:01:41.215Z,17.00
2022-08-05T21:04:10.991Z,16.96
2022-08-05T21:06:45.476Z,16.92
2022-08-05T21:09:14.719Z,16.87
2022-08-05T21:12:09.931Z,16.83
2022-08-05T21:14:35.241Z,16.77
2022-08-05T21:17:04.848Z,16.74
2022-08-05T21:19:47.354Z,16.70
2022-08-05T21:22:21.563Z,16.67
2022-08-05T21:24:51.887Z,16.62
2022-08-05T21:27:20.431Z,16.60
2022-08-05T21:29:48.395Z,16.55
2022-08-05T21:32:18.417Z,16.50
2022-08-05T21:35:06.931Z,16.43
2022-08-05T21:37:33.040Z,16.33
2022-08-05T21:39:59.605Z,16.27
2022-08-05T21:42:40.959Z,16.20
2022-08-05T21:45:11.106Z,16.08
2022-08-05T21:47:56.924Z,15.98
2022-08-05T21:50:25.045Z,15.85
2022-08-05T21:52:51.496Z,15.79
2022-08-05T21:56:01.701Z,15.79
2022-08-05T21:58:10.509Z,15.77
2022-08-05T22:00:38.404Z,15.79
2022-08-05T22:03:06.861Z,15.79
2022-08-05T22:05:48.133Z,15.78
2022-08-05T22:08:22.464Z,15.70
2022-08-05T22:10:51.701Z,15.64
2022-08-05T22:14:19.826Z,15.58
2022-08-05T22:16:15.709Z,15.52
2022-08-05T22:18:52.548Z,15.49
2022-08-05T22:21:19.953Z,15.46
2022-08-05T22:24:12.916Z,15.41
2022-08-05T22:27:11.077Z,15.31
2022-08-05T22:29:42.994Z,15.20
2022-08-05T22:32:10.202Z,15.13
2022-08-05T22:34:36.777Z,15.05
2022-08-05T22:37:03.815Z,14.97
2022-08-05T22:39:33.979Z,14.95
2022-08-05T22:42:12.568Z,14.97
2022-08-05T22:44:48.645Z,14.92
2022-08-05T22:47:29.857Z,14.80
2022-08-05T22:50:19.552Z,14.74
2022-08-05T22:52:48.930Z,14.70
2022-08-05T22:55:19.641Z,14.63
2022-08-05T22:57:49.382Z,14.56
2022-08-05T23:00:18.408Z,14.51
2022-08-05T23:02:48.292Z,14.35
2022-08-05T23:05:15.667Z,14.28
2022-08-05T23:07:48.385Z,14.27
2022-08-05T23:10:19.533Z,14.29
2022-08-05T23:12:47.080Z,14.20
2022-08-05T23:15:13.651Z,14.06
2022-08-05T23:18:01.435Z,13.92
2022-08-05T23:20:31.150Z,13.88
2022-08-05T23:22:58.626Z,13.90
2022-08-05T23:25:50.871Z,13.82
2022-08-05T23:28:13.117Z,13.77
2022-08-05T23:30:43.774Z,13.68
2022-08-05T23:33:26.514Z,13.66
2022-08-05T23:36:05.904Z,13.69
2022-08-05T23:38:36.487Z,13.66
2022-08-05T23:41:02.923Z,13.56
2022-08-05T23:44:04.797Z,13.42
2022-08-05T23:46:21.118Z,13.38
2022-08-05T23:49:00.678Z,13.42
2022-08-05T23:51:53.683Z,13.42
2022-08-05T23:54:30.284Z,13.40
2022-08-05T23:57:04.207Z,13.37
